createdAt,value
2018-12-08T00:00:03.905Z,86.36
2018-12-08T00:00:35.021Z,86.29
2018-12-08T00:01:06.132Z,86.55
2018-12-08T00:01:37.236Z,86.05
2018-12-08T00:02:08.366Z,86.25
2018-12-08T00:02:39.497Z,86.14
2018-12-08T00:03:10.625Z,86.62
2018-12-08T00:03:41.781Z,86.07
2018-12-08T00:04:12.896Z,86.27
2018-12-08T00:04:44.001Z,86.53
2018-12-08T00:05:15.120Z,86.56
2018-12-08T00:05:46.249Z,87.00
2018-12-08T00:06:18.228Z,86.50
2018-12-08T00:06:49.354Z,86.49
2018-12-08T00:07:20.460Z,86.88
2018-12-08T00:07:51.586Z,86.46
2018-12-08T00:08:22.700Z,86.21
2018-12-08T00:08:53.861Z,86.51
2018-12-08T00:09:25.027Z,86.07
2018-12-08T00:09:56.154Z,85.74
2018-12-08T00:10:27.287Z,86.22
2018-12-08T00:10:58.396Z,86.04
2018-12-08T00:11:30.574Z,85.79
2018-12-08T00:12:01.694Z,85.94
2018-12-08T00:12:32.816Z,85.21
2018-12-08T00:13:03.934Z,85.96
2018-12-08T00:13:35.044Z,85.59
2018-12-08T00:14:06.193Z,85.23
2018-12-08T00:14:37.354Z,85.85
2018-12-08T00:15:08.464Z,85.28
2018-12-08T00:15:39.567Z,84.94
2018-12-08T00:16:10.685Z,85.58
2018-12-08T00:16:41.799Z,84.82
2018-12-08T00:17:12.913Z,85.05
2018-12-08T00:17:44.025Z,84.85
2018-12-08T00:18:15.145Z,85.14
2018-12-08T00:18:46.260Z,85.17
2018-12-08T00:19:17.375Z,85.73
2018-12-08T00:19:48.533Z,85.29
2018-12-08T00:20:19.636Z,85.67
2018-12-08T00:20:50.788Z,85.74
2018-12-08T00:21:21.912Z,86.05
2018-12-08T00:21:53.021Z,86.12
2018-12-08T00:22:24.128Z,85.81
2018-12-08T00:22:55.254Z,86.28
2018-12-08T00:23:26.377Z,86.01
2018-12-08T00:23:57.500Z,85.69
2018-12-08T00:24:28.628Z,86.04
2018-12-08T00:24:59.730Z,86.03
2018-12-08T00:25:30.884Z,86.11
2018-12-08T00:26:02.033Z,85.54
2018-12-08T00:26:33.161Z,85.85
2018-12-08T00:27:04.278Z,85.85
2018-12-08T00:27:35.392Z,85.35
2018-12-08T00:28:06.674Z,85.89
2018-12-08T00:28:37.873Z,85.42
2018-12-08T00:29:08.984Z,85.86
2018-12-08T00:29:40.109Z,85.66
2018-12-08T00:30:11.270Z,85.28
2018-12-08T00:30:42.437Z,85.49
2018-12-08T00:31:13.560Z,85.90
2018-12-08T00:31:44.676Z,85.61
2018-12-08T00:32:15.789Z,85.73
2018-12-08T00:32:46.901Z,85.40
2018-12-08T00:33:18.017Z,85.20
2018-12-08T00:33:49.128Z,85.24
2018-12-08T00:34:20.243Z,85.16
2018-12-08T00:34:51.357Z,85.49
2018-12-08T00:35:22.468Z,85.48
2018-12-08T00:35:53.616Z,85.87
2018-12-08T00:36:24.725Z,85.61
2018-12-08T00:36:55.835Z,85.54
2018-12-08T00:37:26.945Z,85.31
2018-12-08T00:37:58.070Z,85.66
2018-12-08T00:38:29.185Z,85.45
2018-12-08T00:39:00.306Z,85.02
2018-12-08T00:39:31.416Z,85.42
2018-12-08T00:40:02.566Z,85.54
2018-12-08T00:40:33.679Z,85.19
2018-12-08T00:41:04.823Z,85.55
2018-12-08T00:41:35.930Z,85.33
2018-12-08T00:42:07.041Z,85.02
2018-12-08T00:42:38.153Z,85.14
2018-12-08T00:43:09.269Z,84.83
2018-12-08T00:43:40.386Z,85.52
2018-12-08T00:44:11.492Z,85.04
2018-12-08T00:44:42.602Z,84.86
2018-12-08T00:45:13.716Z,85.05
2018-12-08T00:45:44.827Z,84.88
2018-12-08T00:46:15.977Z,84.81
2018-12-08T00:46:47.094Z,84.69
2018-12-08T00:47:18.207Z,84.42
2018-12-08T00:47:49.354Z,84.09
2018-12-08T00:48:20.467Z,84.36
2018-12-08T00:48:51.580Z,84.61
2018-12-08T00:49:22.731Z,84.02
2018-12-08T00:49:53.857Z,84.60
2018-12-08T00:50:24.982Z,84.62
2018-12-08T00:50:56.088Z,84.79
2018-12-08T00:51:27.245Z,84.86
2018-12-08T00:51:58.369Z,84.71
2018-12-08T00:52:29.503Z,84.87
2018-12-08T00:53:01.548Z,84.88
2018-12-08T00:53:32.665Z,84.54
2018-12-08T00:54:03.788Z,84.99
2018-12-08T00:54:34.908Z,84.80
2018-12-08T00:55:06.034Z,84.89
2018-12-08T00:55:37.149Z,84.50
2018-12-08T00:56:08.262Z,84.58
2018-12-08T00:56:40.565Z,84.64
2018-12-08T00:57:11.674Z,84.64
2018-12-08T00:57:42.784Z,84.70
2018-12-08T00:58:13.929Z,84.62
2018-12-08T00:58:45.036Z,84.38
2018-12-08T00:59:16.160Z,84.80
2018-12-08T00:59:47.288Z,84.76
2018-12-08T01:00:18.424Z,84.06
2018-12-08T01:00:49.543Z,84.22
2018-12-08T01:01:20.654Z,84.65
2018-12-08T01:01:51.799Z,84.26
2018-12-08T01:02:22.926Z,84.52
2018-12-08T01:02:54.072Z,85.01
2018-12-08T01:03:25.524Z,84.33
2018-12-08T01:03:56.657Z,85.01
2018-12-08T01:04:27.806Z,85.04
2018-12-08T01:04:58.915Z,85.15
2018-12-08T01:05:30.025Z,85.14
2018-12-08T01:06:01.138Z,84.80
2018-12-08T01:06:32.245Z,85.00
2018-12-08T01:07:03.363Z,84.89
2018-12-08T01:07:34.484Z,84.93
2018-12-08T01:08:05.640Z,85.14
2018-12-08T01:08:36.761Z,84.91
2018-12-08T01:09:07.903Z,84.45
2018-12-08T01:09:39.033Z,85.06
2018-12-08T01:10:10.161Z,84.70
2018-12-08T01:10:41.268Z,84.90
2018-12-08T01:11:12.374Z,84.42
2018-12-08T01:11:43.488Z,84.62
2018-12-08T01:12:14.613Z,84.76
2018-12-08T01:12:45.730Z,84.35
2018-12-08T01:13:16.873Z,84.91
2018-12-08T01:13:47.984Z,84.16
2018-12-08T01:14:19.097Z,84.32
2018-12-08T01:14:50.214Z,84.61
2018-12-08T01:15:21.328Z,83.93
2018-12-08T01:15:52.443Z,84.02
2018-12-08T01:16:23.561Z,84.03
2018-12-08T01:16:54.682Z,84.13
2018-12-08T01:17:25.780Z,84.29
2018-12-08T01:17:57.925Z,84.69
2018-12-08T01:18:29.029Z,84.24
2018-12-08T01:19:00.189Z,84.39
2018-12-08T01:19:32.080Z,84.71
2018-12-08T01:20:03.218Z,84.15
2018-12-08T01:20:34.327Z,84.14
2018-12-08T01:21:05.433Z,84.15
2018-12-08T01:21:36.604Z,84.58
2018-12-08T01:22:07.717Z,84.50
2018-12-08T01:22:38.828Z,84.96
2018-12-08T01:23:09.947Z,84.58
2018-12-08T01:23:41.074Z,84.66
2018-12-08T01:24:12.183Z,85.12
2018-12-08T01:24:44.228Z,85.20
2018-12-08T01:25:15.543Z,85.08
2018-12-08T01:25:46.654Z,84.85
2018-12-08T01:26:17.785Z,85.34
2018-12-08T01:26:48.940Z,85.64
2018-12-08T01:27:20.066Z,85.27
2018-12-08T01:27:51.180Z,85.56
2018-12-08T01:28:22.304Z,85.64
2018-12-08T01:28:53.426Z,85.47
2018-12-08T01:29:24.577Z,85.84
2018-12-08T01:29:55.691Z,85.71
2018-12-08T01:30:26.825Z,85.49
2018-12-08T01:30:57.936Z,85.39
2018-12-08T01:31:29.049Z,85.49
2018-12-08T01:32:00.198Z,85.68
2018-12-08T01:32:31.309Z,85.31
2018-12-08T01:33:02.414Z,85.42
2018-12-08T01:33:33.518Z,85.52
2018-12-08T01:34:04.620Z,85.00
2018-12-08T01:34:35.735Z,85.09
2018-12-08T01:35:06.852Z,85.86
2018-12-08T01:35:37.965Z,85.33
2018-12-08T01:36:09.079Z,85.31
2018-12-08T01:36:40.192Z,85.71
2018-12-08T01:37:11.352Z,85.10
2018-12-08T01:37:42.456Z,84.83
2018-12-08T01:38:13.561Z,85.09
2018-12-08T01:38:44.703Z,85.26
2018-12-08T01:39:15.816Z,85.14
2018-12-08T01:39:46.919Z,85.45
2018-12-08T01:40:18.874Z,85.69
2018-12-08T01:40:50.006Z,85.28
2018-12-08T01:41:21.120Z,85.09
2018-12-08T01:41:52.229Z,85.48
2018-12-08T01:42:23.347Z,85.45
2018-12-08T01:42:54.474Z,85.26
2018-12-08T01:43:25.588Z,85.55
2018-12-08T01:43:56.723Z,85.67
2018-12-08T01:44:27.843Z,85.69
2018-12-08T01:44:58.952Z,85.48
2018-12-08T01:45:30.071Z,85.56
2018-12-08T01:46:01.183Z,86.06
2018-12-08T01:46:32.287Z,85.58
2018-12-08T01:47:03.401Z,85.90
2018-12-08T01:47:34.526Z,85.88
2018-12-08T01:48:05.644Z,86.49
2018-12-08T01:48:36.807Z,86.48
2018-12-08T01:49:07.914Z,86.56
2018-12-08T01:49:39.024Z,86.37
2018-12-08T01:50:10.131Z,86.70
2018-12-08T01:50:41.236Z,86.17
2018-12-08T01:51:12.393Z,86.68
2018-12-08T01:51:43.509Z,86.59
2018-12-08T01:52:14.616Z,86.93
2018-12-08T01:52:45.731Z,86.92
2018-12-08T01:53:16.851Z,87.00
2018-12-08T01:53:48.003Z,86.36
2018-12-08T01:54:19.116Z,86.75
2018-12-08T01:54:50.228Z,87.25
2018-12-08T01:55:21.340Z,86.97
2018-12-08T01:55:52.471Z,87.38
2018-12-08T01:56:23.584Z,87.10
2018-12-08T01:56:54.736Z,87.36
2018-12-08T01:57:25.849Z,87.43
2018-12-08T01:57:56.968Z,87.03
2018-12-08T01:58:28.104Z,86.64
2018-12-08T01:58:59.269Z,86.80
2018-12-08T01:59:30.393Z,87.26
2018-12-08T02:00:01.512Z,87.11
2018-12-08T02:00:32.647Z,86.72
2018-12-08T02:01:03.760Z,86.96
2018-12-08T02:01:34.912Z,87.08
2018-12-08T02:02:06.031Z,86.79
2018-12-08T02:02:37.149Z,86.60
2018-12-08T02:03:08.310Z,86.99
2018-12-08T02:03:39.420Z,86.78
2018-12-08T02:04:10.532Z,87.57
2018-12-08T02:04:41.649Z,87.34
2018-12-08T02:05:12.761Z,86.91
2018-12-08T02:05:43.878Z,87.18
2018-12-08T02:06:14.997Z,87.51
2018-12-08T02:06:46.123Z,87.16
2018-12-08T02:07:17.233Z,87.45
2018-12-08T02:07:48.345Z,87.11
2018-12-08T02:08:19.488Z,86.48
2018-12-08T02:08:50.606Z,86.83
2018-12-08T02:09:21.750Z,86.69
2018-12-08T02:09:52.864Z,87.34
2018-12-08T02:10:24.013Z,86.84
2018-12-08T02:10:55.119Z,87.42
2018-12-08T02:11:26.228Z,87.11
2018-12-08T02:11:57.350Z,87.35
2018-12-08T02:12:28.554Z,86.53
2018-12-08T02:12:59.712Z,86.54
2018-12-08T02:13:30.832Z,86.97
2018-12-08T02:14:02.000Z,87.33
2018-12-08T02:14:33.115Z,86.69
2018-12-08T02:15:04.236Z,86.33
2018-12-08T02:15:35.357Z,86.84
2018-12-08T02:16:06.492Z,87.16
2018-12-08T02:16:37.598Z,86.80
2018-12-08T02:17:08.708Z,86.49
2018-12-08T02:17:39.829Z,87.42
2018-12-08T02:18:10.980Z,86.67
2018-12-08T02:18:42.093Z,87.42
2018-12-08T02:19:13.205Z,87.13
2018-12-08T02:19:44.318Z,86.86
2018-12-08T02:20:15.467Z,86.97
2018-12-08T02:20:46.579Z,86.49
2018-12-08T02:21:17.684Z,86.70
2018-12-08T02:21:48.843Z,86.79
2018-12-08T02:22:19.962Z,86.75
2018-12-08T02:22:51.073Z,86.64
2018-12-08T02:23:22.182Z,86.96
2018-12-08T02:23:53.300Z,86.83
2018-12-08T02:24:24.411Z,86.58
2018-12-08T02:24:55.525Z,86.97
2018-12-08T02:25:26.754Z,86.84
2018-12-08T02:25:57.890Z,86.57
2018-12-08T02:26:29.028Z,86.63
2018-12-08T02:27:00.167Z,86.73
2018-12-08T02:27:31.317Z,86.12
2018-12-08T02:28:02.437Z,86.09
2018-12-08T02:28:33.553Z,86.73
2018-12-08T02:29:04.664Z,86.02
2018-12-08T02:29:35.772Z,85.98
2018-12-08T02:30:06.900Z,86.48
2018-12-08T02:30:38.013Z,86.51
2018-12-08T02:31:09.132Z,86.45
2018-12-08T02:31:40.235Z,86.96
2018-12-08T02:32:11.369Z,86.73
2018-12-08T02:32:42.526Z,86.00
2018-12-08T02:33:13.636Z,86.37
2018-12-08T02:33:44.764Z,87.03
2018-12-08T02:34:15.880Z,86.50
2018-12-08T02:34:46.989Z,86.83
2018-12-08T02:35:18.098Z,86.52
2018-12-08T02:35:49.218Z,86.51
2018-12-08T02:36:20.333Z,86.94
2018-12-08T02:36:51.441Z,86.97
2018-12-08T02:37:22.549Z,86.66
2018-12-08T02:37:53.717Z,86.82
2018-12-08T02:38:24.832Z,86.73
2018-12-08T02:38:55.964Z,86.69
2018-12-08T02:39:27.084Z,86.79
2018-12-08T02:39:58.207Z,86.63
2018-12-08T02:40:29.437Z,86.59
2018-12-08T02:41:00.592Z,86.15
2018-12-08T02:41:31.736Z,86.43
2018-12-08T02:42:02.852Z,86.32
2018-12-08T02:42:33.973Z,86.37
2018-12-08T02:43:05.180Z,86.46
2018-12-08T02:43:36.315Z,86.28
2018-12-08T02:44:07.468Z,85.75
2018-12-08T02:44:38.581Z,85.91
2018-12-08T02:45:09.716Z,85.67
2018-12-08T02:45:40.825Z,85.13
2018-12-08T02:46:11.944Z,85.56
2018-12-08T02:46:43.092Z,85.42
2018-12-08T02:47:14.220Z,85.69
2018-12-08T02:47:45.340Z,85.71
2018-12-08T02:48:16.524Z,85.22
2018-12-08T02:48:47.682Z,85.76
2018-12-08T02:49:18.789Z,85.63
2018-12-08T02:49:49.929Z,85.74
2018-12-08T02:50:21.039Z,86.04
2018-12-08T02:50:52.198Z,85.48
2018-12-08T02:51:23.344Z,85.67
2018-12-08T02:51:54.461Z,85.38
2018-12-08T02:52:25.570Z,85.86
2018-12-08T02:52:56.685Z,85.95
2018-12-08T02:53:27.810Z,85.38
2018-12-08T02:53:59.033Z,85.81
2018-12-08T02:54:30.320Z,85.68
2018-12-08T02:55:01.446Z,85.97
2018-12-08T02:55:32.565Z,85.65
2018-12-08T02:56:03.695Z,85.54
2018-12-08T02:56:34.814Z,85.62
2018-12-08T02:57:05.971Z,85.63
2018-12-08T02:57:37.086Z,85.32
2018-12-08T02:58:08.194Z,85.42
2018-12-08T02:58:39.306Z,84.95
2018-12-08T02:59:10.416Z,85.37
2018-12-08T02:59:41.537Z,85.20
2018-12-08T03:00:12.696Z,84.92
2018-12-08T03:00:43.813Z,84.78
2018-12-08T03:01:14.934Z,84.77
2018-12-08T03:01:46.050Z,85.51
2018-12-08T03:02:17.161Z,84.53
2018-12-08T03:02:48.281Z,84.98
2018-12-08T03:03:19.402Z,85.24
2018-12-08T03:03:50.522Z,85.32
2018-12-08T03:04:21.654Z,84.47
2018-12-08T03:04:52.775Z,84.40
2018-12-08T03:05:24.110Z,85.06
2018-12-08T03:05:55.266Z,84.21
2018-12-08T03:06:26.424Z,84.51
2018-12-08T03:06:57.536Z,84.44
2018-12-08T03:07:28.654Z,84.68
2018-12-08T03:07:59.801Z,85.28
2018-12-08T03:08:30.924Z,85.26
2018-12-08T03:09:02.045Z,84.49
2018-12-08T03:09:33.163Z,85.33
2018-12-08T03:10:04.272Z,84.77
2018-12-08T03:10:35.397Z,85.37
2018-12-08T03:11:06.495Z,85.12
2018-12-08T03:11:37.605Z,85.73
2018-12-08T03:12:08.751Z,85.26
2018-12-08T03:12:39.866Z,85.23
2018-12-08T03:13:10.968Z,85.91
2018-12-08T03:13:42.079Z,85.75
2018-12-08T03:14:13.236Z,86.07
2018-12-08T03:14:44.341Z,85.65
2018-12-08T03:15:15.459Z,85.92
2018-12-08T03:15:46.574Z,86.06
2018-12-08T03:16:17.681Z,85.39
2018-12-08T03:16:48.786Z,85.21
2018-12-08T03:17:19.887Z,85.00
2018-12-08T03:17:50.996Z,85.33
2018-12-08T03:18:22.139Z,85.56
2018-12-08T03:18:53.289Z,85.46
2018-12-08T03:19:24.397Z,84.94
2018-12-08T03:19:55.508Z,85.87
2018-12-08T03:20:26.623Z,85.54
2018-12-08T03:20:57.741Z,85.23
2018-12-08T03:21:28.849Z,86.09
2018-12-08T03:21:59.970Z,85.88
2018-12-08T03:22:31.145Z,85.84
2018-12-08T03:23:02.250Z,85.60
2018-12-08T03:23:33.366Z,85.65
2018-12-08T03:24:04.469Z,85.41
2018-12-08T03:24:35.582Z,85.38
2018-12-08T03:25:06.731Z,85.53
2018-12-08T03:25:37.852Z,85.65
2018-12-08T03:26:08.996Z,85.96
2018-12-08T03:26:40.145Z,85.41
2018-12-08T03:27:11.261Z,86.31
2018-12-08T03:27:42.376Z,85.83
2018-12-08T03:28:13.485Z,85.87
2018-12-08T03:28:44.595Z,85.94
2018-12-08T03:29:15.701Z,85.87
2018-12-08T03:29:46.937Z,86.33
2018-12-08T03:30:18.057Z,85.95
2018-12-08T03:30:49.172Z,85.63
2018-12-08T03:31:20.305Z,85.60
2018-12-08T03:31:51.482Z,86.02
2018-12-08T03:32:22.612Z,86.00
2018-12-08T03:32:53.742Z,85.70
2018-12-08T03:33:25.373Z,86.16
2018-12-08T03:33:56.482Z,85.79
2018-12-08T03:34:27.597Z,85.61
2018-12-08T03:34:58.722Z,85.81
2018-12-08T03:35:29.850Z,86.00
2018-12-08T03:36:00.957Z,86.13
2018-12-08T03:36:32.071Z,85.99
2018-12-08T03:37:03.215Z,86.23
2018-12-08T03:37:34.363Z,86.05
2018-12-08T03:38:05.473Z,86.14
2018-12-08T03:38:36.589Z,85.94
2018-12-08T03:39:07.707Z,85.66
2018-12-08T03:39:38.846Z,86.03
2018-12-08T03:40:09.973Z,85.99
2018-12-08T03:40:41.085Z,86.30
2018-12-08T03:41:12.198Z,86.45
2018-12-08T03:41:43.355Z,86.29
2018-12-08T03:42:14.463Z,86.41
2018-12-08T03:42:45.567Z,86.43
2018-12-08T03:43:16.699Z,86.21
2018-12-08T03:43:47.804Z,87.16
2018-12-08T03:44:18.915Z,86.81
2018-12-08T03:44:50.063Z,86.92
2018-12-08T03:45:21.177Z,86.87
2018-12-08T03:45:52.283Z,87.27
2018-12-08T03:46:23.397Z,86.41
2018-12-08T03:46:54.507Z,86.38
2018-12-08T03:47:25.632Z,86.22
2018-12-08T03:47:56.748Z,86.36
2018-12-08T03:48:27.873Z,86.86
2018-12-08T03:48:58.976Z,87.00
2018-12-08T03:49:30.089Z,86.57
2018-12-08T03:50:01.240Z,87.22
2018-12-08T03:50:32.364Z,86.37
2018-12-08T03:51:03.524Z,87.07
2018-12-08T03:51:34.637Z,86.50
2018-12-08T03:52:06.527Z,86.39
2018-12-08T03:52:37.636Z,86.63
2018-12-08T03:53:08.740Z,86.41
2018-12-08T03:53:39.858Z,86.51
2018-12-08T03:54:10.975Z,85.94
2018-12-08T03:54:42.097Z,85.86
2018-12-08T03:55:13.261Z,86.38
2018-12-08T03:55:45.019Z,85.55
2018-12-08T03:56:16.421Z,85.51
2018-12-08T03:56:47.541Z,86.33
2018-12-08T03:57:19.671Z,86.25
2018-12-08T03:57:50.795Z,86.17
2018-12-08T03:58:21.921Z,85.67
2018-12-08T03:58:53.043Z,85.75
2018-12-08T03:59:24.165Z,86.11
2018-12-08T03:59:55.276Z,85.60
2018-12-08T04:00:26.466Z,85.83
2018-12-08T04:00:57.583Z,85.21
2018-12-08T04:01:28.709Z,85.82
2018-12-08T04:01:59.830Z,85.35
2018-12-08T04:02:30.946Z,85.96
2018-12-08T04:03:02.094Z,85.82
2018-12-08T04:03:33.239Z,85.99
2018-12-08T04:04:04.351Z,86.59
2018-12-08T04:04:35.463Z,86.56
2018-12-08T04:05:06.583Z,85.70
2018-12-08T04:05:37.694Z,86.33
2018-12-08T04:06:08.806Z,86.32
2018-12-08T04:06:39.908Z,86.26
2018-12-08T04:07:11.027Z,86.49
2018-12-08T04:07:42.134Z,86.07
2018-12-08T04:08:13.272Z,86.29
2018-12-08T04:08:44.389Z,86.19
2018-12-08T04:09:15.498Z,86.22
2018-12-08T04:09:46.608Z,86.67
2018-12-08T04:10:17.725Z,86.19
2018-12-08T04:10:48.837Z,86.31
2018-12-08T04:11:20.042Z,86.07
2018-12-08T04:11:51.208Z,86.14
2018-12-08T04:12:22.335Z,86.50
2018-12-08T04:12:53.494Z,85.81
2018-12-08T04:13:24.602Z,86.30
2018-12-08T04:13:55.712Z,86.39
2018-12-08T04:14:26.832Z,85.87
2018-12-08T04:14:57.938Z,87.03
2018-12-08T04:15:29.108Z,86.48
2018-12-08T04:16:00.244Z,86.53
2018-12-08T04:16:31.353Z,86.41
2018-12-08T04:17:02.470Z,86.46
2018-12-08T04:17:33.577Z,86.50
2018-12-08T04:18:04.686Z,86.68
2018-12-08T04:18:35.797Z,86.63
2018-12-08T04:19:06.946Z,87.00
2018-12-08T04:19:38.072Z,87.30
2018-12-08T04:20:09.185Z,86.64
2018-12-08T04:20:40.325Z,87.00
2018-12-08T04:21:11.437Z,87.03
2018-12-08T04:21:42.574Z,87.14
2018-12-08T04:22:13.719Z,87.03
2018-12-08T04:22:44.833Z,87.51
2018-12-08T04:23:15.949Z,87.47
2018-12-08T04:23:47.053Z,87.22
2018-12-08T04:24:18.167Z,86.81
2018-12-08T04:24:49.274Z,86.64
2018-12-08T04:25:20.375Z,86.79
2018-12-08T04:25:51.517Z,87.01
2018-12-08T04:26:22.615Z,86.26
2018-12-08T04:26:53.723Z,87.06
2018-12-08T04:27:24.845Z,87.21
2018-12-08T04:27:55.996Z,87.37
2018-12-08T04:28:27.097Z,87.50
2018-12-08T04:28:58.203Z,86.61
2018-12-08T04:29:29.323Z,87.02
2018-12-08T04:30:00.434Z,86.58
2018-12-08T04:30:32.447Z,86.99
2018-12-08T04:31:03.670Z,87.01
2018-12-08T04:31:34.776Z,87.53
2018-12-08T04:32:05.902Z,87.74
2018-12-08T04:32:37.014Z,87.71
2018-12-08T04:33:08.123Z,87.75
2018-12-08T04:33:39.275Z,86.95
2018-12-08T04:34:10.388Z,87.25
2018-12-08T04:34:41.503Z,86.64
2018-12-08T04:35:12.623Z,87.16
2018-12-08T04:35:43.742Z,87.17
2018-12-08T04:36:14.863Z,86.82
2018-12-08T04:36:46.000Z,87.16
2018-12-08T04:37:17.107Z,87.69
2018-12-08T04:37:48.221Z,87.40
2018-12-08T04:38:19.334Z,86.76
2018-12-08T04:38:50.452Z,87.59
2018-12-08T04:39:21.571Z,87.53
2018-12-08T04:39:52.690Z,86.77
2018-12-08T04:40:23.802Z,86.57
2018-12-08T04:40:54.912Z,87.07
2018-12-08T04:41:26.024Z,86.81
2018-12-08T04:41:57.171Z,86.39
2018-12-08T04:42:28.279Z,86.80
2018-12-08T04:42:59.386Z,86.52
2018-12-08T04:43:30.492Z,86.90
2018-12-08T04:44:01.611Z,87.21
2018-12-08T04:44:32.730Z,87.00
2018-12-08T04:45:03.872Z,86.85
2018-12-08T04:45:35.207Z,86.46
2018-12-08T04:46:06.323Z,86.62
2018-12-08T04:46:37.438Z,86.96
2018-12-08T04:47:08.600Z,86.17
2018-12-08T04:47:39.701Z,86.27
2018-12-08T04:48:11.911Z,86.55
2018-12-08T04:48:43.021Z,86.33
2018-12-08T04:49:14.121Z,86.70
2018-12-08T04:49:45.225Z,85.87
2018-12-08T04:50:16.330Z,86.64
2018-12-08T04:50:47.437Z,85.98
2018-12-08T04:51:18.548Z,85.84
2018-12-08T04:51:49.656Z,85.54
2018-12-08T04:52:23.833Z,86.09
2018-12-08T04:52:54.994Z,85.72
2018-12-08T04:53:26.118Z,85.51
2018-12-08T04:53:57.241Z,85.47
2018-12-08T04:54:28.488Z,85.53
2018-12-08T04:54:59.618Z,85.68
2018-12-08T04:55:30.729Z,86.11
2018-12-08T04:56:01.880Z,85.88
2018-12-08T04:56:33.030Z,85.96
2018-12-08T04:57:04.182Z,85.48
2018-12-08T04:57:35.327Z,85.87
2018-12-08T04:58:06.436Z,85.83
2018-12-08T04:58:37.626Z,86.47
2018-12-08T04:59:08.785Z,86.44
2018-12-08T04:59:39.893Z,86.58
2018-12-08T05:00:11.002Z,85.90
2018-12-08T05:00:42.112Z,86.73
2018-12-08T05:01:13.216Z,86.26
2018-12-08T05:01:44.319Z,86.28
2018-12-08T05:02:15.455Z,86.39
2018-12-08T05:02:46.569Z,85.75
2018-12-08T05:03:17.683Z,85.81
2018-12-08T05:03:48.796Z,86.47
2018-12-08T05:04:19.950Z,85.99
2018-12-08T05:04:51.070Z,86.44
2018-12-08T05:05:22.193Z,85.55
2018-12-08T05:05:53.303Z,86.53
2018-12-08T05:06:24.410Z,86.07
2018-12-08T05:06:55.566Z,85.97
2018-12-08T05:07:26.678Z,85.86
2018-12-08T05:07:57.789Z,86.33
2018-12-08T05:08:28.903Z,85.98
2018-12-08T05:09:00.003Z,85.52
2018-12-08T05:09:31.099Z,85.84
2018-12-08T05:10:02.213Z,86.36
2018-12-08T05:10:33.334Z,85.97
2018-12-08T05:11:04.440Z,86.12
2018-12-08T05:11:35.545Z,86.58
2018-12-08T05:12:06.692Z,86.15
2018-12-08T05:12:37.804Z,86.20
2018-12-08T05:13:08.905Z,86.34
2018-12-08T05:13:40.017Z,85.95
2018-12-08T05:14:11.118Z,86.81
2018-12-08T05:14:42.229Z,86.67
2018-12-08T05:15:14.342Z,85.97
2018-12-08T05:15:45.448Z,86.33
2018-12-08T05:16:16.550Z,86.02
2018-12-08T05:16:47.660Z,85.66
2018-12-08T05:17:18.799Z,85.67
2018-12-08T05:17:49.908Z,85.91
2018-12-08T05:18:21.007Z,86.59
2018-12-08T05:18:52.117Z,85.97
2018-12-08T05:19:23.226Z,86.43
2018-12-08T05:19:54.359Z,86.44
2018-12-08T05:20:25.457Z,86.59
2018-12-08T05:20:56.607Z,85.85
2018-12-08T05:21:27.711Z,86.25
2018-12-08T05:21:58.822Z,86.33
2018-12-08T05:22:29.918Z,85.81
2018-12-08T05:23:01.024Z,86.85
2018-12-08T05:23:32.146Z,85.90
2018-12-08T05:24:03.260Z,86.39
2018-12-08T05:24:34.379Z,85.83
2018-12-08T05:25:05.503Z,86.46
2018-12-08T05:25:36.608Z,86.58
2018-12-08T05:26:07.744Z,85.91
2018-12-08T05:26:38.858Z,86.30
2018-12-08T05:27:09.956Z,86.24
2018-12-08T05:27:41.065Z,86.63
2018-12-08T05:28:12.185Z,86.18
2018-12-08T05:28:43.317Z,86.60
2018-12-08T05:29:14.438Z,86.80
2018-12-08T05:29:45.576Z,85.78
2018-12-08T05:30:16.710Z,86.85
2018-12-08T05:30:47.834Z,86.40
2018-12-08T05:31:18.950Z,86.76
2018-12-08T05:31:50.070Z,86.70
2018-12-08T05:32:21.201Z,85.89
2018-12-08T05:32:52.316Z,86.84
2018-12-08T05:33:23.428Z,86.32
2018-12-08T05:33:54.535Z,85.87
2018-12-08T05:34:25.646Z,86.06
2018-12-08T05:34:56.796Z,85.73
2018-12-08T05:35:27.913Z,86.24
2018-12-08T05:35:59.033Z,85.70
2018-12-08T05:36:30.143Z,86.08
2018-12-08T05:37:01.290Z,86.24
2018-12-08T05:37:32.414Z,85.58
2018-12-08T05:38:03.533Z,85.76
2018-12-08T05:38:34.635Z,85.30
2018-12-08T05:39:05.757Z,85.64
2018-12-08T05:39:36.867Z,85.55
2018-12-08T05:40:14.654Z,85.82
2018-12-08T05:40:45.830Z,85.76
2018-12-08T05:41:17.026Z,86.11
2018-12-08T05:41:48.197Z,86.22
2018-12-08T05:42:19.333Z,86.00
2018-12-08T05:42:50.786Z,86.53
2018-12-08T05:43:21.945Z,85.80
2018-12-08T05:43:53.099Z,85.78
2018-12-08T05:44:24.204Z,87.03
2018-12-08T05:44:55.312Z,86.15
2018-12-08T05:45:26.424Z,86.66
2018-12-08T05:45:57.576Z,86.85
2018-12-08T05:46:28.694Z,87.11
2018-12-08T05:46:59.809Z,87.01
2018-12-08T05:47:30.916Z,86.92
2018-12-08T05:48:02.044Z,87.07
2018-12-08T05:48:33.151Z,86.84
2018-12-08T05:49:04.262Z,86.56
2018-12-08T05:49:35.386Z,87.06
2018-12-08T05:50:06.502Z,87.11
2018-12-08T05:50:37.639Z,86.93
2018-12-08T05:51:09.061Z,86.43
2018-12-08T05:51:40.184Z,86.40
2018-12-08T05:52:11.434Z,86.46
2018-12-08T05:52:42.619Z,86.41
2018-12-08T05:53:13.742Z,86.62
2018-12-08T05:53:44.850Z,86.98
2018-12-08T05:54:16.465Z,86.50
2018-12-08T05:54:47.573Z,86.54
2018-12-08T05:55:18.685Z,86.40
2018-12-08T05:55:49.800Z,86.21
2018-12-08T05:56:20.911Z,86.59
2018-12-08T05:56:52.026Z,86.48
2018-12-08T05:57:23.149Z,86.58
2018-12-08T05:57:54.297Z,86.37
2018-12-08T05:58:25.402Z,86.49
2018-12-08T05:58:56.511Z,86.39
2018-12-08T05:59:27.615Z,86.12
2018-12-08T05:59:58.767Z,85.71
2018-12-08T06:00:29.894Z,85.63
2018-12-08T06:01:00.996Z,86.00
2018-12-08T06:01:32.099Z,85.90
2018-12-08T06:02:03.215Z,85.43
2018-12-08T06:02:34.326Z,86.19
2018-12-08T06:03:05.475Z,85.98
2018-12-08T06:03:36.595Z,86.35
2018-12-08T06:04:07.704Z,86.08
2018-12-08T06:04:38.830Z,85.47
2018-12-08T06:05:10.118Z,86.31
2018-12-08T06:05:41.234Z,86.01
2018-12-08T06:06:12.359Z,86.35
2018-12-08T06:06:43.529Z,85.92
2018-12-08T06:07:14.656Z,85.56
2018-12-08T06:07:45.895Z,85.95
2018-12-08T06:08:17.032Z,86.22
2018-12-08T06:08:48.146Z,85.43
2018-12-08T06:09:19.253Z,85.54
2018-12-08T06:09:50.363Z,85.20
2018-12-08T06:10:21.474Z,85.22
2018-12-08T06:10:52.617Z,85.54
2018-12-08T06:11:23.785Z,85.45
2018-12-08T06:11:54.885Z,85.33
2018-12-08T06:12:26.013Z,85.10
2018-12-08T06:12:57.124Z,85.79
2018-12-08T06:13:28.238Z,85.27
2018-12-08T06:13:59.353Z,85.29
2018-12-08T06:14:30.459Z,85.16
2018-12-08T06:15:01.570Z,85.73
2018-12-08T06:15:32.668Z,86.14
2018-12-08T06:16:03.814Z,85.47
2018-12-08T06:16:34.932Z,85.75
2018-12-08T06:17:06.041Z,85.59
2018-12-08T06:17:37.157Z,86.15
2018-12-08T06:18:08.267Z,85.30
2018-12-08T06:18:39.418Z,85.92
2018-12-08T06:19:10.538Z,85.93
2018-12-08T06:19:41.644Z,85.43
2018-12-08T06:20:12.747Z,85.37
2018-12-08T06:20:43.864Z,85.68
2018-12-08T06:21:15.013Z,85.38
2018-12-08T06:21:46.178Z,85.67
2018-12-08T06:22:17.308Z,84.74
2018-12-08T06:22:48.455Z,85.26
2018-12-08T06:23:56.918Z,84.97
2018-12-08T06:24:28.035Z,84.28
2018-12-08T06:24:59.186Z,84.61
2018-12-08T06:25:30.298Z,84.08
2018-12-08T06:26:01.414Z,84.46
2018-12-08T06:26:32.537Z,83.93
2018-12-08T06:27:03.708Z,83.89
2018-12-08T06:27:34.833Z,83.46
2018-12-08T06:28:05.965Z,83.52
2018-12-08T06:28:38.894Z,83.53
2018-12-08T06:29:10.255Z,83.27
2018-12-08T06:29:41.397Z,83.56
2018-12-08T06:30:12.510Z,83.48
2018-12-08T06:30:43.657Z,82.75
2018-12-08T06:31:14.909Z,83.13
2018-12-08T06:31:46.029Z,83.13
2018-12-08T06:32:17.161Z,82.68
2018-12-08T06:32:48.345Z,83.02
2018-12-08T06:33:19.454Z,82.46
2018-12-08T06:33:50.743Z,82.79
2018-12-08T06:34:22.436Z,82.33
2018-12-08T06:34:53.562Z,83.00
2018-12-08T06:35:24.745Z,82.21
2018-12-08T06:35:55.936Z,82.14
2018-12-08T06:36:27.053Z,82.66
2018-12-08T06:36:58.168Z,82.05
2018-12-08T06:37:29.281Z,82.57
2018-12-08T06:38:00.393Z,82.27
2018-12-08T06:38:31.504Z,82.29
2018-12-08T06:39:02.622Z,82.40
2018-12-08T06:39:33.764Z,81.88
2018-12-08T06:40:04.881Z,81.77
2018-12-08T06:40:36.008Z,82.30
2018-12-08T06:41:07.126Z,82.46
2018-12-08T06:41:38.235Z,82.21